Morses Line, Vermont
Current Conditions -  °F | °C
As of 12:35 PM on Saturday 22 Nov 2014 (Local Time) from KFSO Reporting Station
Clear Clear  
Wind Chill: 23°   Ceiling: Unl
Heat Index: 32°   Visibility: 10mi
Dew Point: 13°   Wind: 13mph
Humidity: 46%   Direction: 190°S
Pressure: 30.02"   Gusts: 20mph
Location:  44.9656°N, 72.8975°W
Report Text: KFSO 221735Z AUTO 19011G17KT 160V220 10SM CLR 00/M10 A3002 RMK AO2 T00011103
Loading
Personal Weather Stations






























Interactive Weather Map New forecast layout! Learn more

10-Day Weather Forecast

Advertisements
Track Severe Weather on mobile